Time;durP1;ratioP1;P1;durP2;ratioP2;P2;SDS_P1;SDS_P2;PMS_P1;PMS_P2;Temp;Humidity;BMP_temperature;BMP_pressure;BME280_temperature;BME280_humidity;BME280_pressure;Samples;Min_cycle;Max_cycle;Signal;HPM_P1;HPM_P2
2022/05/29 00:01:51;;;;;;;8.95;2.70;;;;;;;10.04;99.55;100476.09;4970083;28;20041;-82
2022/05/29 00:04:19;;;;;;;4.45;2.45;;;;;;;10.01;99.79;100470.91;4988773;28;20049;-82
2022/05/29 00:06:50;;;;;;;7.32;2.58;;;;;;;10.06;99.50;100476.06;4987241;28;20045;-82
2022/05/29 00:09:28;;;;;;;5.20;3.60;;;;;;;10.18;97.58;100481.09;4974181;28;20049;-82
2022/05/29 00:11:55;;;;;;;5.68;2.70;;;;;;;10.08;99.09;100464.56;4991439;28;20073;-82
2022/05/29 00:14:21;;;;;;;6.35;2.88;;;;;;;10.01;99.43;100465.63;5005825;28;20050;-82
2022/05/29 00:16:48;;;;;;;11.55;3.22;;;;;;;10.01;99.38;100476.19;4972074;28;20050;-82
2022/05/29 00:19:15;;;;;;;8.40;3.03;;;;;;;10.10;99.41;100467.19;4971973;28;20038;-82
2022/05/29 00:21:41;;;;;;;4.40;2.50;;;;;;;10.15;98.43;100467.94;4975870;28;20050;-82
2022/05/29 00:24:09;;;;;;;6.45;2.60;;;;;;;10.09;98.19;100468.09;4985893;28;20042;-82
2022/05/29 00:26:36;;;;;;;8.73;2.78;;;;;;;10.10;98.91;100461.91;4991738;28;20036;-81
2022/05/29 00:29:03;;;;;;;5.18;2.38;;;;;;;10.10;99.14;100464.56;4974323;28;20778;-82
2022/05/29 00:31:29;;;;;;;6.18;2.78;;;;;;;10.05;98.92;100461.13;4991798;28;20053;-82
2022/05/29 00:33:56;;;;;;;6.70;2.47;;;;;;;10.03;100.00;100466.44;4979013;28;20046;-82
2022/05/29 00:36:23;;;;;;;5.18;2.38;;;;;;;10.06;99.70;100469.00;4974997;28;20038;-82
2022/05/29 00:38:50;;;;;;;6.90;2.70;;;;;;;10.10;99.00;100456.63;4967228;28;20054;-81
2022/05/29 00:41:24;;;;;;;6.43;2.92;;;;;;;10.13;99.89;100462.69;4974006;28;20508;-80
2022/05/29 00:44:13;;;;;;;5.05;2.53;;;;;;;10.09;99.51;100455.75;5000155;28;20575;-81
2022/05/29 00:46:44;;;;;;;8.85;3.45;;;;;;;10.05;99.97;100453.22;5007215;28;20096;-81
2022/05/29 00:49:12;;;;;;;4.00;2.58;;;;;;;9.97;100.00;100455.16;4955572;28;20041;-80
2022/05/29 00:51:48;;;;;;;5.65;2.95;;;;;;;9.95;100.00;100452.53;4969503;28;20136;-81
2022/05/29 00:54:15;;;;;;;4.63;2.95;;;;;;;9.94;100.00;100450.81;4968863;28;20534;-81
2022/05/29 00:56:43;;;;;;;9.68;3.38;;;;;;;9.97;100.00;100449.88;4976084;28;20037;-81
2022/05/29 00:59:17;;;;;;;6.18;2.47;;;;;;;9.95;100.00;100459.59;4994203;28;20048;-80
2022/05/29 01:01:43;;;;;;;10.30;2.90;;;;;;;10.01;100.00;100452.41;4991733;28;20041;-82
2022/05/29 01:04:11;;;;;;;6.88;2.80;;;;;;;9.99;100.00;100450.69;4973677;28;20038;-81
2022/05/29 01:06:38;;;;;;;7.53;2.80;;;;;;;9.94;100.00;100461.38;4973111;28;20443;-81
2022/05/29 01:09:07;;;;;;;10.60;3.83;;;;;;;9.93;100.00;100453.50;4975777;28;20038;-81
2022/05/29 01:11:49;;;;;;;4.47;2.53;;;;;;;9.91;100.00;100458.78;4992020;28;20084;-80
2022/05/29 01:14:25;;;;;;;3.97;2.85;;;;;;;9.93;100.00;100462.28;4990554;28;20407;-81
2022/05/29 01:17:05;;;;;;;9.10;3.10;;;;;;;9.98;100.00;100460.38;4971008;28;20045;-81
2022/05/29 01:19:55;;;;;;;9.57;3.50;;;;;;;9.92;100.00;100457.91;4990966;28;20080;-81
2022/05/29 01:22:44;;;;;;;4.85;2.80;;;;;;;9.91;100.00;100456.13;4990693;28;20066;-81
2022/05/29 01:25:49;;;;;;;8.77;3.00;;;;;;;9.87;100.00;100450.06;4991227;28;20041;-81
2022/05/29 01:28:47;;;;;;;6.43;3.25;;;;;;;9.84;100.00;100450.13;4976093;28;20049;-80
2022/05/29 01:31:37;;;;;;;7.93;2.72;;;;;;;9.96;100.00;100449.00;4990143;28;20042;-82
2022/05/29 01:34:13;;;;;;;5.80;3.05;;;;;;;9.87;100.00;100444.78;4971130;28;20495;-82
2022/05/29 01:36:58;;;;;;;5.55;2.72;;;;;;;9.86;100.00;100447.47;4976219;28;20042;-82
2022/05/29 01:39:33;;;;;;;4.53;2.30;;;;;;;9.83;100.00;100436.94;5072227;23;20037;-79
2022/05/29 01:42:16;;;;;;;5.82;2.60;;;;;;;9.76;100.00;100443.28;5013369;28;20034;-80
2022/05/29 01:45:14;;;;;;;6.20;2.55;;;;;;;9.78;100.00;100444.13;4992518;28;20041;-78
2022/05/29 01:47:41;;;;;;;9.38;3.20;;;;;;;9.78;100.00;100433.56;5009062;28;20048;-79
2022/05/29 01:50:17;;;;;;;6.57;3.40;;;;;;;9.77;100.00;100437.97;5021873;28;20065;-80
2022/05/29 01:52:48;;;;;;;7.55;3.03;;;;;;;9.79;100.00;100438.81;5008712;28;20049;-78
2022/05/29 01:55:24;;;;;;;10.23;3.40;;;;;;;9.82;100.00;100433.44;4992423;28;20529;-79
2022/05/29 01:57:55;;;;;;;6.00;2.88;;;;;;;9.72;100.00;100433.69;5010634;28;20038;-80
2022/05/29 02:00:23;;;;;;;4.10;2.65;;;;;;;9.79;100.00;100430.88;5020603;28;20041;-78
2022/05/29 02:02:58;;;;;;;5.40;2.35;;;;;;;9.72;100.00;100436.31;5006561;28;20545;-78
2022/05/29 02:05:28;;;;;;;7.15;2.75;;;;;;;9.72;100.00;100444.22;5008491;28;20041;-78
2022/05/29 02:08:03;;;;;;;6.63;2.75;;;;;;;9.79;100.00;100435.28;4987323;28;20618;-82
2022/05/29 02:10:36;;;;;;;8.82;3.13;;;;;;;9.88;100.00;100435.09;5028334;28;20044;-81
2022/05/29 02:13:41;;;;;;;8.48;2.80;;;;;;;9.82;100.00;100432.59;5010658;28;20037;-81
2022/05/29 02:16:09;;;;;;;;;;;;;;;9.73;100.00;100432.78;5023944;28;20049;-81
2022/05/29 02:18:35;;;;;;;7.40;3.05;;;;;;;9.75;100.00;100429.22;5033130;28;19979;-80
2022/05/29 02:21:08;;;;;;;5.00;2.95;;;;;;;9.70;100.00;100432.84;5032757;28;20044;-82
2022/05/29 02:23:46;;;;;;;6.65;2.45;;;;;;;9.66;100.00;100433.78;5003704;28;20111;-81
2022/05/29 02:26:18;;;;;;;5.00;2.72;;;;;;;9.65;100.00;100432.94;5019775;28;20034;-80
2022/05/29 02:28:48;;;;;;;4.28;2.78;;;;;;;9.69;100.00;100423.19;4990714;28;20594;-80
2022/05/29 02:31:37;;;;;;;4.88;2.47;;;;;;;9.68;100.00;100430.25;5000709;28;20049;-81
2022/05/29 02:34:13;;;;;;;8.38;3.20;;;;;;;9.70;100.00;100422.28;4992007;28;20557;-80
2022/05/29 02:36:52;;;;;;;9.55;2.92;;;;;;;9.71;100.00;100416.13;4992046;28;20052;-80
2022/05/29 02:39:41;;;;;;;4.18;2.33;;;;;;;9.66;100.00;100423.25;5003084;28;20499;-80
2022/05/29 02:42:16;;;;;;;3.72;2.38;;;;;;;9.61;100.00;100417.22;4978558;28;20503;-80
2022/05/29 02:45:06;;;;;;;6.32;2.78;;;;;;;9.61;100.00;100426.00;4979048;28;20041;-81
2022/05/29 02:47:36;;;;;;;7.10;2.97;;;;;;;9.63;100.00;100413.63;4995348;28;20045;-79
2022/05/29 02:50:23;;;;;;;6.90;3.25;;;;;;;9.62;100.00;100417.19;4989954;28;20042;-81
2022/05/29 02:52:55;;;;;;;5.35;2.70;;;;;;;9.72;100.00;100407.28;4994987;28;20112;-79
2022/05/29 02:55:22;;;;;;;6.97;2.92;;;;;;;9.63;100.00;100411.00;4986448;28;20046;-80
2022/05/29 02:57:56;;;;;;;5.93;2.60;;;;;;;9.56;100.00;100418.16;4978761;28;20044;-79
2022/05/29 03:00:23;;;;;;;5.85;2.92;;;;;;;9.62;100.00;100411.03;4979172;28;20044;-82
2022/05/29 03:03:03;;;;;;;9.65;3.20;;;;;;;9.60;100.00;100411.06;4973380;28;20571;-80
2022/05/29 03:05:50;;;;;;;8.07;3.00;;;;;;;9.54;100.00;100417.31;4992006;28;20057;-81
2022/05/29 03:08:55;;;;;;;6.13;2.75;;;;;;;9.48;100.00;100411.31;4989789;28;20030;-80
2022/05/29 03:11:40;;;;;;;9.30;3.97;;;;;;;9.50;100.00;100418.31;5012123;28;20050;-80
2022/05/29 03:14:26;;;;;;;6.13;3.58;;;;;;;9.47;100.00;100417.47;4965487;28;20050;-80
2022/05/29 03:17:30;;;;;;;7.78;3.45;;;;;;;9.55;100.00;100418.19;4998603;28;20038;-79
2022/05/29 03:20:06;;;;;;;6.30;2.47;;;;;;;9.54;100.00;100413.81;4989281;28;20108;-80
2022/05/29 03:22:57;;;;;;;5.78;2.95;;;;;;;9.53;100.00;100407.69;4992794;28;20062;-81
2022/05/29 03:25:48;;;;;;;7.35;2.40;;;;;;;9.51;100.00;100409.50;4980500;28;20121;-81
2022/05/29 03:28:21;;;;;;;7.28;3.28;;;;;;;9.43;100.00;100406.13;4977469;28;20044;-80
2022/05/29 03:30:49;;;;;;;8.27;2.53;;;;;;;9.36;100.00;100408.91;4979398;28;20065;-81
2022/05/29 03:33:16;;;;;;;5.72;2.40;;;;;;;9.35;100.00;100402.78;4976896;28;20050;-80
2022/05/29 03:35:43;;;;;;;5.15;2.78;;;;;;;9.52;100.00;100402.44;4976572;28;20073;-80
2022/05/29 03:38:10;;;;;;;5.28;2.65;;;;;;;9.48;100.00;100398.97;4990456;28;20038;-80
2022/05/29 03:40:36;;;;;;;7.43;3.88;;;;;;;9.40;100.00;100400.91;4994351;28;20392;-80
2022/05/29 03:43:03;;;;;;;5.10;2.72;;;;;;;9.36;100.00;100399.25;4996708;28;20052;-80
2022/05/29 03:45:31;;;;;;;4.47;2.58;;;;;;;9.27;100.00;100400.28;4955296;28;20073;-80
2022/05/29 03:47:57;;;;;;;6.85;2.78;;;;;;;9.20;100.00;100403.94;4991957;28;20499;-80
2022/05/29 03:50:25;;;;;;;6.55;3.10;;;;;;;9.14;100.00;100405.81;4994641;28;20124;-80
2022/05/29 03:52:51;;;;;;;7.07;2.75;;;;;;;9.19;100.00;100403.97;4963320;28;20054;-81
2022/05/29 03:55:24;;;;;;;5.95;3.45;;;;;;;9.17;100.00;100397.88;5002924;28;20097;-80
2022/05/29 03:57:51;;;;;;;4.35;2.38;;;;;;;9.09;100.00;100405.91;4960689;28;20089;-79
2022/05/29 04:00:20;;;;;;;7.28;3.60;;;;;;;9.09;100.00;100400.66;4976786;28;20037;-80
2022/05/29 04:02:47;;;;;;;6.53;2.75;;;;;;;9.17;100.00;100401.38;4972633;28;20073;-80
2022/05/29 04:05:19;;;;;;;7.22;3.40;;;;;;;9.35;100.00;100397.50;4991652;28;20046;-80
2022/05/29 04:13:20;;;;;;;5.93;2.70;;;;;;;9.44;100.00;100397.31;4996676;28;20515;-80
2022/05/29 04:15:46;;;;;;;4.70;2.85;;;;;;;9.46;100.00;100405.19;4993499;28;20041;-79
2022/05/29 04:18:18;;;;;;;7.45;3.55;;;;;;;9.54;100.00;100400.63;4985993;28;20554;-80
2022/05/29 04:20:45;;;;;;;6.95;3.20;;;;;;;9.58;100.00;100405.84;4975725;28;20049;-80
2022/05/29 04:23:12;;;;;;;3.97;2.53;;;;;;;9.59;100.00;100404.94;4977991;28;20466;-80
2022/05/29 04:25:42;;;;;;;5.97;2.63;;;;;;;9.74;100.00;100400.22;4976042;28;20140;-80
2022/05/29 04:28:08;;;;;;;5.40;2.90;;;;;;;9.81;100.00;100397.41;4975843;28;20038;-80
2022/05/29 04:30:35;;;;;;;8.27;2.72;;;;;;;10.06;100.00;100397.75;4990826;28;20038;-80
2022/05/29 04:33:01;;;;;;;6.13;2.55;;;;;;;10.18;100.00;100401.91;4983570;28;20993;-80
2022/05/29 04:35:40;;;;;;;6.55;3.17;;;;;;;10.35;100.00;100390.97;4973002;28;20042;-80
2022/05/29 04:38:08;;;;;;;5.43;2.42;;;;;;;10.53;100.00;100393.16;5003180;28;20035;-80
2022/05/29 04:40:40;;;;;;;4.50;2.90;;;;;;;10.52;100.00;100390.56;4976489;28;20050;-78
2022/05/29 04:43:06;;;;;;;8.45;2.22;;;;;;;10.61;100.00;100393.84;4959205;28;20146;-78
2022/05/29 04:45:34;;;;;;;6.03;2.50;;;;;;;10.67;100.00;100390.16;4984889;28;20073;-79
2022/05/29 04:48:00;;;;;;;5.07;2.60;;;;;;;10.69;100.00;100386.59;4977513;28;20054;-78
2022/05/29 04:50:27;;;;;;;4.28;2.42;;;;;;;10.81;100.00;100380.13;4985415;28;20045;-79
2022/05/29 04:52:53;;;;;;;7.25;2.67;;;;;;;10.90;99.99;100392.22;4991434;28;20050;-79
2022/05/29 04:55:20;;;;;;;4.63;2.53;;;;;;;10.94;99.75;100389.47;4991593;28;20045;-79
2022/05/29 04:57:47;;;;;;;4.40;2.85;;;;;;;11.00;98.03;100393.72;4993615;28;20030;-78
2022/05/29 05:00:14;;;;;;;4.97;2.25;;;;;;;11.01;98.46;100395.44;4990993;28;20038;-82
2022/05/29 05:02:41;;;;;;;5.45;2.60;;;;;;;11.08;97.57;100386.44;4979811;28;20045;-81
2022/05/29 05:05:09;;;;;;;7.38;3.22;;;;;;;11.16;98.11;100394.16;4978078;28;20046;-81
2022/05/29 05:07:36;;;;;;;5.05;2.67;;;;;;;11.08;96.97;100386.44;4974985;28;20038;-80
2022/05/29 05:10:11;;;;;;;4.78;2.75;;;;;;;11.24;96.97;100393.06;4992615;28;20507;-79
2022/05/29 05:12:39;;;;;;;4.38;2.65;;;;;;;11.19;97.98;100383.53;4968792;28;20049;-80
2022/05/29 05:15:07;;;;;;;6.82;3.10;;;;;;;11.34;97.75;100388.38;4980219;28;20053;-79
2022/05/29 05:17:33;;;;;;;7.10;3.33;;;;;;;11.36;96.20;100383.94;4971568;28;20046;-79
2022/05/29 05:20:00;;;;;;;5.85;2.85;;;;;;;11.43;95.88;100388.09;4964402;28;20069;-79
2022/05/29 05:22:27;;;;;;;5.18;2.80;;;;;;;11.45;96.34;100385.44;4994024;28;20042;-80
2022/05/29 05:24:53;;;;;;;6.03;2.92;;;;;;;11.53;95.29;100386.09;4974001;28;20565;-81
2022/05/29 05:27:20;;;;;;;9.10;3.40;;;;;;;11.49;95.47;100380.00;4994836;28;20045;-80
2022/05/29 05:29:47;;;;;;;4.53;2.90;;;;;;;11.47;97.59;100383.63;4976971;28;20045;-80
2022/05/29 05:32:13;;;;;;;5.25;3.00;;;;;;;11.53;96.63;100386.97;4979207;28;20038;-80
2022/05/29 05:34:41;;;;;;;4.75;2.90;;;;;;;11.52;96.79;100387.88;4981144;28;20045;-80
2022/05/29 05:37:09;;;;;;;5.82;3.53;;;;;;;11.43;96.71;100388.09;4991410;28;20046;-79
2022/05/29 05:39:36;;;;;;;8.10;3.55;;;;;;;11.33;98.33;100388.41;5008065;28;20049;-79
2022/05/29 05:42:05;;;;;;;12.05;7.75;;;;;;;11.26;97.23;100388.59;4997692;28;20045;-80
2022/05/29 05:44:31;;;;;;;11.57;5.40;;;;;;;11.14;97.70;100396.88;4995719;28;20041;-79
2022/05/29 05:46:58;;;;;;;6.88;4.15;;;;;;;11.15;99.63;100398.59;5020510;28;20552;-80
2022/05/29 05:49:27;;;;;;;10.00;4.80;;;;;;;11.21;100.00;100393.16;4994232;28;20463;-81
2022/05/29 05:51:57;;;;;;;5.60;3.53;;;;;;;11.15;99.96;100395.09;4993524;28;20049;-81
2022/05/29 05:54:24;;;;;;;8.43;4.18;;;;;;;11.14;97.65;100393.34;4999836;28;20041;-81
2022/05/29 05:56:51;;;;;;;7.32;3.22;;;;;;;11.12;98.44;100395.19;5000708;28;20060;-81
2022/05/29 05:59:18;;;;;;;7.25;3.90;;;;;;;11.17;98.76;100391.47;5023435;28;20033;-81
2022/05/29 06:01:47;;;;;;;6.25;3.92;;;;;;;11.19;96.90;100394.97;5003984;28;20049;-81
2022/05/29 06:04:14;;;;;;;8.38;3.95;;;;;;;11.12;97.33;100393.41;4997796;28;20045;-80
2022/05/29 06:06:41;;;;;;;6.65;3.92;;;;;;;11.11;97.46;100390.81;5001417;28;20048;-82
2022/05/29 06:09:07;;;;;;;8.20;4.05;;;;;;;11.16;97.26;100391.53;4997492;28;20078;-80
2022/05/29 06:11:39;;;;;;;7.50;3.83;;;;;;;11.21;96.62;100398.44;4999560;28;20053;-81
2022/05/29 06:14:06;;;;;;;7.90;4.15;;;;;;;11.30;96.59;100397.31;4998085;28;20491;-81
2022/05/29 06:16:33;;;;;;;10.65;4.07;;;;;;;11.28;94.04;100400.00;5015857;28;20049;-81
2022/05/29 06:19:00;;;;;;;7.75;3.80;;;;;;;11.33;95.65;100397.22;4979792;28;20033;-80
2022/05/29 06:21:27;;;;;;;9.57;3.90;;;;;;;11.39;93.32;100399.69;4999256;28;20049;-81
2022/05/29 06:23:54;;;;;;;5.57;3.15;;;;;;;11.42;92.66;100401.38;4981980;28;20053;-80
2022/05/29 06:26:20;;;;;;;5.18;3.38;;;;;;;11.33;93.30;100396.34;4999954;28;20045;-80
2022/05/29 06:28:47;;;;;;;5.55;3.10;;;;;;;11.36;93.07;100402.44;4979270;28;20037;-80
2022/05/29 06:31:14;;;;;;;12.25;11.02;;;;;;;11.49;92.11;100409.09;5027232;28;20588;-81
2022/05/29 06:33:41;;;;;;;6.32;4.05;;;;;;;11.50;91.13;100407.31;5004837;28;20055;-80
2022/05/29 06:36:20;;;;;;;6.43;3.20;;;;;;;11.59;91.24;100407.06;4999736;28;20625;-81
2022/05/29 06:38:47;;;;;;;7.88;4.00;;;;;;;11.61;90.19;100407.03;4988786;28;21082;-80
2022/05/29 06:41:15;;;;;;;5.78;4.18;;;;;;;11.69;91.14;100407.69;4981325;28;20076;-80
2022/05/29 06:43:42;;;;;;;4.10;2.83;;;;;;;11.92;90.54;100409.66;5025604;28;20057;-80
2022/05/29 06:46:11;;;;;;;5.75;3.03;;;;;;;12.33;89.10;100403.97;5016324;28;20455;-80
2022/05/29 06:48:38;;;;;;;5.63;2.90;;;;;;;12.82;84.89;100407.66;5015894;28;20088;-80
2022/05/29 06:51:16;;;;;;;4.25;2.67;;;;;;;13.01;76.71;100407.03;5016678;28;20542;-81
2022/05/29 06:53:43;;;;;;;4.65;2.45;;;;;;;13.37;76.53;100408.44;5027339;28;20045;-81
2022/05/29 06:56:10;;;;;;;5.68;2.97;;;;;;;13.38;74.90;100402.22;5021638;28;20094;-80
2022/05/29 06:58:36;;;;;;;5.40;2.42;;;;;;;12.92;76.07;100395.81;5036579;28;20055;-80
2022/05/29 07:06:59;;;;;;;5.57;3.20;;;;;;;12.73;78.77;100407.97;5011771;28;20140;-80
2022/05/29 07:09:36;;;;;;;4.50;2.50;;;;;;;12.57;80.56;100407.63;5035501;28;20033;-80
2022/05/29 07:12:07;;;;;;;8.35;3.42;;;;;;;12.58;79.51;100413.78;4999538;28;20052;-80
2022/05/29 07:14:39;;;;;;;5.15;2.78;;;;;;;12.58;78.14;100412.00;5031241;28;20622;-80
2022/05/29 07:17:06;;;;;;;10.95;3.78;;;;;;;12.56;80.10;100412.97;5035484;28;20045;-80
2022/05/29 07:19:34;;;;;;;6.18;2.95;;;;;;;12.52;80.57;100419.28;5018570;28;20409;-80
2022/05/29 07:22:01;;;;;;;8.15;3.00;;;;;;;12.52;80.67;100419.28;5004012;28;20040;-80
2022/05/29 07:24:29;;;;;;;6.25;3.13;;;;;;;12.58;80.95;100413.78;5020641;28;20099;-81
2022/05/29 07:26:56;;;;;;;8.25;4.35;;;;;;;12.57;80.88;100422.66;5035785;28;20056;-80
2022/05/29 07:29:23;;;;;;;5.28;2.92;;;;;;;12.43;82.00;100419.56;5019959;28;20041;-80
2022/05/29 07:31:52;;;;;;;5.70;3.15;;;;;;;12.61;81.30;100424.28;4999200;28;20124;-80
2022/05/29 07:34:19;;;;;;;5.90;3.00;;;;;;;12.67;81.16;100419.66;5039917;28;20053;-80
2022/05/29 07:36:46;;;;;;;4.63;2.50;;;;;;;12.85;80.23;100419.94;5006078;28;20045;-80
2022/05/29 07:39:13;;;;;;;5.18;2.80;;;;;;;13.12;76.47;100418.16;5027837;28;20041;-79
2022/05/29 07:44:25;;;;;;;5.53;3.03;;;;;;;13.47;75.58;100416.94;5013679;28;20606;-80
2022/05/29 07:46:52;;;;;;;3.95;3.28;;;;;;;13.79;74.65;100410.44;5053586;28;20032;-80
2022/05/29 07:49:19;;;;;;;5.40;2.80;;;;;;;14.27;72.58;100409.47;5047444;28;20516;-80
2022/05/29 07:51:45;;;;;;;7.05;2.60;;;;;;;14.82;69.03;100408.13;5019556;28;20395;-79
2022/05/29 07:54:12;;;;;;;6.05;2.88;;;;;;;15.32;67.88;100404.22;5018233;28;20158;-80
2022/05/29 07:56:39;;;;;;;3.53;2.50;;;;;;;15.72;65.39;100400.63;5046552;23;20041;-83
2022/05/29 07:59:06;;;;;;;6.10;2.85;;;;;;;16.36;60.87;100396.75;5034082;28;20041;-83
2022/05/29 08:01:33;;;;;;;4.38;2.33;;;;;;;16.70;58.68;100404.00;5035422;28;20053;-82
2022/05/29 08:04:00;;;;;;;5.40;2.35;;;;;;;17.04;55.24;100398.69;5003337;28;20065;-82
2022/05/29 08:06:26;;;;;;;4.85;2.25;;;;;;;17.01;54.80;100401.50;5018788;28;20033;-82
2022/05/29 08:08:53;;;;;;;2.25;1.95;;;;;;;16.94;54.29;100397.44;5010022;28;20136;-84
2022/05/29 08:11:20;;;;;;;3.80;2.72;;;;;;;17.06;53.57;100395.94;5010763;28;20048;-84
2022/05/29 08:13:46;;;;;;;4.38;2.15;;;;;;;17.27;54.74;100396.63;4994270;28;20166;-85
2022/05/29 08:16:16;;;;;;;2.65;1.90;;;;;;;17.21;53.93;100404.94;4997249;28;20048;-85
2022/05/29 08:18:44;;;;;;;3.85;2.00;;;;;;;16.82;56.61;100409.59;5022417;28;20037;-84
2022/05/29 08:21:11;;;;;;;5.60;2.28;;;;;;;16.59;57.39;100401.84;5019126;28;20617;-84
2022/05/29 08:23:41;;;;;;;3.72;2.42;;;;;;;16.56;57.38;100405.53;5013087;28;20073;-83
2022/05/29 08:32:06;;;;;;;3.53;2.00;;;;;;;15.88;57.26;100417.66;4962985;28;20046;-84
2022/05/29 08:34:33;;;;;;;4.18;2.03;;;;;;;15.70;58.66;100414.03;5009255;28;20038;-84
2022/05/29 08:37:00;;;;;;;3.78;2.13;;;;;;;15.46;59.29;100423.94;4997259;28;20052;-84
2022/05/29 08:39:27;;;;;;;3.63;2.38;;;;;;;15.18;61.59;100421.66;5009444;28;20406;-84
2022/05/29 08:41:55;;;;;;;3.67;2.00;;;;;;;14.98;63.67;100418.13;4997430;28;20514;-84
2022/05/29 08:44:44;;;;;;;4.63;2.03;;;;;;;14.82;63.05;100415.25;4995987;28;20042;-85
2022/05/29 08:47:11;;;;;;;3.35;2.25;;;;;;;14.68;65.31;100423.78;5030529;28;20045;-84
2022/05/29 08:49:48;;;;;;;8.45;2.85;;;;;;;14.51;68.55;100424.47;5000593;28;20038;-84
2022/05/29 08:52:47;;;;;;;6.90;2.80;;;;;;;14.62;73.72;100419.56;4994347;28;20122;-84
2022/05/29 08:55:20;;;;;;;4.68;2.10;;;;;;;14.45;72.50;100418.47;5010775;28;20041;-83
2022/05/29 08:58:13;;;;;;;3.85;2.05;;;;;;;14.37;73.92;100422.31;4997262;28;20419;-84
2022/05/29 09:00:55;;;;;;;2.35;2.00;;;;;;;14.39;73.49;100416.97;5011905;28;20048;-83
2022/05/29 09:03:46;;;;;;;3.67;2.10;;;;;;;14.52;70.74;100420.00;4996682;28;20041;-83
2022/05/29 09:06:22;;;;;;;4.30;1.98;;;;;;;14.53;70.19;100422.59;5012342;28;20041;-83
2022/05/29 09:09:11;;;;;;;4.13;2.72;;;;;;;14.55;68.70;100415.44;4995642;28;20053;-83
2022/05/29 09:11:47;;;;;;;5.22;2.53;;;;;;;14.71;68.36;100426.28;5012479;28;20052;-83
2022/05/29 09:14:30;;;;;;;3.53;1.80;;;;;;;14.85;68.25;100412.44;5020508;28;20041;-81
2022/05/29 09:17:02;;;;;;;3.63;1.90;;;;;;;15.15;65.82;100411.13;5001124;28;20055;-81
2022/05/29 09:19:41;;;;;;;1.80;1.42;;;;;;;15.40;64.57;100418.91;5011205;28;20072;-81
2022/05/29 09:22:19;;;;;;;2.75;1.23;;;;;;;15.58;60.56;100409.25;5029133;28;20045;-80
2022/05/29 09:24:57;;;;;;;1.27;0.98;;;;;;;15.59;58.36;100412.78;4999138;28;20045;-82
2022/05/29 09:27:24;;;;;;;2.40;1.42;;;;;;;15.88;56.54;100408.78;4995380;28;20115;-82
2022/05/29 09:29:54;;;;;;;2.10;1.38;;;;;;;16.08;56.15;100403.41;5011017;28;20034;-81
2022/05/29 09:32:23;;;;;;;3.13;1.40;;;;;;;16.51;56.82;100401.34;5009161;28;20392;-83
2022/05/29 09:35:05;;;;;;;2.85;2.10;;;;;;;16.80;53.49;100402.59;5000118;28;20052;-83
2022/05/29 09:37:43;;;;;;;3.15;1.67;;;;;;;17.17;54.33;100401.59;5011885;28;20037;-82
2022/05/29 09:40:20;;;;;;;2.58;1.35;;;;;;;17.48;52.99;100400.81;5010572;28;20545;-82
2022/05/29 09:42:48;;;;;;;3.60;2.85;;;;;;;17.63;51.15;100397.34;5001326;28;20045;-79
2022/05/29 09:45:27;;;;;;;3.25;1.23;;;;;;;17.85;50.25;100393.56;5020158;28;20037;-78
2022/05/29 09:50:51;;;;;;;4.28;2.20;;;;;;;17.70;51.22;100401.44;5020603;28;20044;-79
2022/05/29 09:53:22;;;;;;;2.30;2.00;;;;;;;17.29;50.14;100403.59;5018956;28;20465;-80
2022/05/29 09:55:55;;;;;;;2.97;2.40;;;;;;;17.10;51.37;100401.03;5012218;28;20457;-81
2022/05/29 09:58:28;;;;;;;5.85;2.65;;;;;;;16.99;50.50;100395.41;5013039;28;20037;-81
2022/05/29 10:01:03;;;;;;;2.38;1.73;;;;;;;16.95;51.47;100395.63;4998504;28;20045;-81
2022/05/29 10:03:39;;;;;;;3.15;1.50;;;;;;;16.76;53.07;100396.56;5015535;28;20566;-82
2022/05/29 10:06:18;;;;;;;4.00;1.90;;;;;;;16.59;56.46;100407.16;5032953;28;20045;-82
2022/05/29 10:08:45;;;;;;;12.70;2.78;;;;;;;16.18;58.36;100410.03;5015115;28;20065;-80
2022/05/29 10:11:16;;;;;;;3.83;2.15;;;;;;;15.77;60.07;100410.16;5005766;28;20038;-81
2022/05/29 10:13:44;;;;;;;5.18;2.17;;;;;;;15.77;61.43;100403.97;5008983;28;20105;-82
2022/05/29 10:16:12;;;;;;;2.88;1.80;;;;;;;15.47;61.31;100417.72;5007795;28;20056;-82
2022/05/29 10:18:42;;;;;;;5.03;2.00;;;;;;;15.43;63.46;100416.13;4993197;28;20125;-81
2022/05/29 10:21:14;;;;;;;2.35;1.85;;;;;;;15.46;61.82;100415.09;4990573;28;20045;-82
2022/05/29 10:23:47;;;;;;;5.75;3.78;;;;;;;15.21;64.16;100416.19;5002913;28;20071;-82
2022/05/29 10:26:34;;;;;;;4.07;2.70;;;;;;;15.31;65.27;100423.78;4997384;28;20494;-82
2022/05/29 10:29:12;;;;;;;3.90;3.35;;;;;;;14.98;65.33;100415.47;5020145;28;20125;-83
2022/05/29 10:31:40;;;;;;;3.13;2.78;;;;;;;14.85;67.54;100423.06;5000220;28;20045;-79
2022/05/29 10:34:07;;;;;;;5.78;5.28;;;;;;;14.75;66.97;100421.72;5011432;28;20052;-82
2022/05/29 10:36:35;;;;;;;2.40;1.90;;;;;;;14.83;68.70;100420.47;5018949;28;20042;-81
2022/05/29 10:39:10;;;;;;;2.38;1.70;;;;;;;14.92;67.17;100419.22;5013952;28;20041;-83
2022/05/29 10:41:40;;;;;;;3.45;2.20;;;;;;;14.87;67.92;100416.75;5028298;28;20034;-81
2022/05/29 10:44:37;;;;;;;4.28;2.20;;;;;;;14.70;69.83;100419.25;5012155;28;20391;-81
2022/05/29 10:47:16;;;;;;;4.75;2.28;;;;;;;14.49;71.62;100421.00;4991275;28;20053;-82
2022/05/29 10:49:58;;;;;;;4.72;1.80;;;;;;;14.59;71.21;100421.50;5019087;28;20042;-81
2022/05/29 10:52:54;;;;;;;3.70;2.20;;;;;;;14.68;70.02;100414.94;5001908;28;20064;-83
2022/05/29 10:55:21;;;;;;;3.95;2.10;;;;;;;14.79;68.39;100413.53;5014647;28;20037;-81
2022/05/29 10:58:10;;;;;;;2.78;1.65;;;;;;;15.06;67.80;100406.22;5029858;28;20033;-80
2022/05/29 11:00:42;;;;;;;3.67;1.50;;;;;;;15.25;67.13;100400.09;5019993;28;20049;-82
2022/05/29 11:03:29;;;;;;;3.42;2.00;;;;;;;15.90;62.88;100393.63;5015691;28;20050;-81
2022/05/29 11:06:27;;;;;;;3.58;1.90;;;;;;;16.13;60.86;100390.72;4998709;28;20049;-81
2022/05/29 11:09:16;;;;;;;17.63;3.75;;;;;;;16.71;61.16;100382.56;5014683;28;20049;-81
2022/05/29 11:12:07;;;;;;;16.98;4.90;;;;;;;17.19;57.90;100389.03;5013227;28;20045;-81
2022/05/29 11:14:42;;;;;;;3.92;2.03;;;;;;;17.06;57.53;100393.25;4998470;28;20040;-81
2022/05/29 11:17:16;;;;;;;3.67;2.15;;;;;;;16.80;56.57;100394.59;5031988;28;20666;-82
2022/05/29 11:20:06;;;;;;;127.47;68.85;;;;;;;16.47;57.49;100395.28;5038452;28;20045;-80
2022/05/29 11:22:39;;;;;;;6.07;4.28;;;;;;;16.15;61.88;100398.66;5018251;28;20474;-81
2022/05/29 11:25:20;;;;;;;5.78;2.50;;;;;;;15.84;68.32;100401.91;4990868;28;20041;-80
2022/05/29 11:28:07;;;;;;;6.05;5.45;;;;;;;15.59;72.97;100399.44;4988666;28;20050;-82
2022/05/29 11:31:08;;;;;;;5.50;2.97;;;;;;;15.27;78.14;100404.41;4996196;28;20033;-83
2022/05/29 11:34:13;;;;;;;5.57;4.85;;;;;;;15.05;73.16;100401.84;5037086;28;20064;-84
2022/05/29 11:36:58;;;;;;;;;;;;;;;15.11;74.01;100398.88;4984590;28;20050;-82
2022/05/29 11:39:54;;;;;;;2.72;2.10;;;;;;;15.70;77.03;100392.72;5024322;28;20336;-83
2022/05/29 11:42:27;;;;;;;3.85;2.33;;;;;;;16.06;75.21;100391.97;5008598;28;20057;-84
2022/05/29 11:45:13;;;;;;;2.78;1.80;;;;;;;15.97;70.25;100379.91;5020419;28;20045;-82
2022/05/29 11:53:47;;;;;;;2.00;1.33;;;;;;;16.46;66.25;100369.56;5022452;28;20047;-82
2022/05/29 11:56:21;;;;;;;3.50;2.30;;;;;;;16.25;61.38;100365.28;5005286;28;20042;-81
2022/05/29 11:58:49;;;;;;;;;;;;;;;16.36;62.56;100367.44;5003143;28;20049;-80
2022/05/29 12:01:22;;;;;;;3.45;1.80;;;;;;;16.31;66.98;100368.53;5020452;28;19925;-82
2022/05/29 12:03:58;;;;;;;2.90;2.10;;;;;;;16.00;66.38;100374.47;4996192;28;20506;-85
2022/05/29 12:06:37;;;;;;;2.42;1.80;;;;;;;15.83;68.32;100385.03;5019778;28;20136;-84
2022/05/29 12:09:20;;;;;;;4.03;1.70;;;;;;;15.62;68.86;100365.59;5019930;28;20045;-82
2022/05/29 12:12:13;;;;;;;3.85;1.83;;;;;;;15.57;68.47;100378.22;5018167;28;20139;-82
2022/05/29 12:15:18;;;;;;;3.07;1.93;;;;;;;15.47;67.98;100371.59;5012414;28;20045;-81
2022/05/29 12:17:51;;;;;;;2.67;1.88;;;;;;;15.29;67.95;100375.06;5003373;28;20054;-83
2022/05/29 12:20:26;;;;;;;3.53;1.83;;;;;;;15.22;65.98;100366.50;5017058;28;20044;-79
2022/05/29 12:23:00;;;;;;;2.95;1.60;;;;;;;15.03;66.57;100381.53;5005891;28;20108;-81